Time;durP1;ratioP1;P1;durP2;ratioP2;P2;SDS_P1;SDS_P2;PMS_P1;PMS_P2;Temp;Humidity;BMP_temperature;BMP_pressure;BME280_temperature;BME280_humidity;BME280_pressure;Samples;Min_cycle;Max_cycle;Signal;HPM_P1;HPM_P2
2021/06/23 00:00:11;;;;;;;1.52;0.30;;;19.10;98.10;18.90;99468.00;;;;343080;28;94110;-96
2021/06/23 00:00:23;;;;;;;1.10;0.30;;;19.10;98.10;18.90;99467.00;;;;341679;28;91969;-96
2021/06/23 00:00:36;;;;;;;1.70;0.20;;;19.10;98.10;19.10;99465.00;;;;340324;28;93150;-95
2021/06/23 00:00:49;;;;;;;1.65;0.15;;;19.10;98.10;19.10;99466.00;;;;339842;28;92361;-96
2021/06/23 00:01:02;;;;;;;0.80;0.13;;;19.10;98.10;19.20;99468.00;;;;341478;28;93479;-96
2021/06/23 00:01:14;;;;;;;0.60;0.20;;;19.10;98.10;19.20;99462.00;;;;340156;28;91308;-95
2021/06/23 00:01:26;;;;;;;0.95;0.20;;;19.10;98.20;19.10;99462.00;;;;340187;28;95127;-95
2021/06/23 00:01:38;;;;;;;0.93;0.20;;;19.10;98.10;19.20;99464.00;;;;341492;28;91534;-96
2021/06/23 00:01:50;;;;;;;1.63;0.20;;;19.10;98.10;19.30;99461.00;;;;344116;28;95522;-96
2021/06/23 00:02:02;;;;;;;1.83;0.20;;;19.20;98.20;19.40;99463.00;;;;340876;28;92219;-94
2021/06/23 00:02:13;;;;;;;1.77;0.20;;;19.20;98.20;19.30;99464.00;;;;340659;28;96286;-95
2021/06/23 00:02:25;;;;;;;0.88;0.15;;;19.20;98.10;19.30;99460.00;;;;340180;28;91272;-93
2021/06/23 00:02:37;;;;;;;0.60;0.10;;;19.20;98.00;19.30;99464.00;;;;339071;28;94566;-96
2021/06/23 00:02:49;;;;;;;0.60;0.10;;;19.20;98.00;19.40;99462.00;;;;340111;28;91949;-95
2021/06/23 00:03:01;;;;;;;0.50;0.20;;;19.20;98.00;19.30;99466.00;;;;341507;28;94801;-96
2021/06/23 00:03:13;;;;;;;0.70;0.30;;;19.20;98.00;19.40;99462.00;;;;340149;28;90466;-94
2021/06/23 00:03:24;;;;;;;2.20;0.20;;;19.30;98.00;19.30;99458.00;;;;340317;28;92249;-95
2021/06/23 00:03:36;;;;;;;2.22;0.20;;;19.30;98.00;19.30;99466.00;;;;341485;28;91341;-95
2021/06/23 00:03:48;;;;;;;2.22;0.28;;;19.30;98.00;19.30;99459.00;;;;341287;28;94185;-95
2021/06/23 00:04:00;;;;;;;0.63;0.20;;;19.30;98.00;19.40;99458.00;;;;337556;28;91116;-94
2021/06/23 00:04:12;;;;;;;0.40;0.20;;;19.30;98.30;19.50;99463.00;;;;340386;28;94638;-95
2021/06/23 00:04:24;;;;;;;0.73;0.17;;;19.30;98.00;19.50;99470.00;;;;340211;28;91096;-95
2021/06/23 00:04:36;;;;;;;1.05;0.20;;;19.30;98.00;19.60;99466.00;;;;341536;28;94235;-95
2021/06/23 00:04:48;;;;;;;1.10;0.25;;;19.30;98.00;19.50;99459.00;;;;338762;28;91094;-93
2021/06/23 00:04:59;;;;;;;0.90;0.40;;;19.40;98.00;19.50;99468.00;;;;339334;28;93754;-95
2021/06/23 00:05:12;;;;;;;2.00;0.40;;;19.40;97.90;19.40;99466.00;;;;339794;28;90364;-96
2021/06/23 00:05:24;;;;;;;1.98;0.22;;;19.40;97.80;19.40;99466.00;;;;338907;28;92370;-94
2021/06/23 00:05:36;;;;;;;1.73;0.22;;;19.40;97.80;19.40;99460.00;;;;342713;28;91294;-96
2021/06/23 00:05:48;;;;;;;2.10;0.30;;;19.40;97.80;19.40;99456.00;;;;338790;28;93326;-95
2021/06/23 00:06:01;;;;;;;2.22;0.30;;;19.40;97.80;19.50;99465.00;;;;341269;28;91006;-96
2021/06/23 00:06:12;;;;;;;1.38;0.20;;;19.40;97.80;19.60;99466.00;;;;341508;28;93379;-95
2021/06/23 00:06:24;;;;;;;4.65;0.30;;;19.50;97.90;19.60;99465.00;;;;338633;28;91941;-95
2021/06/23 00:06:36;;;;;;;4.18;0.30;;;19.50;97.80;19.50;99461.00;;;;341307;28;96582;-96
2021/06/23 00:06:48;;;;;;;4.75;0.50;;;19.50;97.70;19.50;99459.00;;;;337391;28;91111;-95
2021/06/23 00:07:00;;;;;;;1.58;0.30;;;19.50;97.70;19.40;99459.00;;;;341642;28;92844;-96
2021/06/23 00:07:11;;;;;;;1.98;0.28;;;19.50;97.50;19.40;99458.00;;;;341089;28;91361;-93
2021/06/23 00:07:23;;;;;;;1.40;0.25;;;19.50;97.50;19.50;99459.00;;;;341494;28;91925;-94
2021/06/23 00:07:35;;;;;;;1.25;0.20;;;19.50;97.60;19.50;99458.00;;;;340094;28;91887;-96
2021/06/23 00:07:47;;;;;;;1.60;0.30;;;19.50;97.60;19.30;99461.00;;;;338772;28;97304;-95
2021/06/23 00:07:59;;;;;;;1.90;0.40;;;19.50;97.50;19.30;99460.00;;;;337337;28;91126;-95
2021/06/23 00:08:10;;;;;;;1.20;0.30;;;19.50;97.50;19.30;99461.00;;;;340965;28;94362;-96
2021/06/23 00:08:22;;;;;;;0.73;0.20;;;19.50;97.40;19.30;99449.00;;;;338733;28;91970;-95
2021/06/23 00:08:34;;;;;;;0.63;0.20;;;19.50;97.40;19.20;99464.00;;;;342570;28;92785;-95
2021/06/23 00:08:46;;;;;;;0.73;0.20;;;19.50;97.40;19.20;99455.00;;;;341424;28;91969;-96
2021/06/23 00:08:58;;;;;;;0.52;0.20;;;19.50;97.40;19.10;99459.00;;;;340058;28;93393;-95
2021/06/23 00:09:10;;;;;;;0.90;0.22;;;19.50;97.40;19.20;99459.00;;;;338557;28;91189;-94
2021/06/23 00:09:22;;;;;;;1.00;0.32;;;19.40;97.40;19.30;99454.00;;;;339052;28;92257;-95
2021/06/23 00:09:34;;;;;;;1.23;0.30;;;19.40;97.50;19.30;99455.00;;;;338705;28;91092;-94
2021/06/23 00:09:45;;;;;;;1.27;0.28;;;19.40;97.50;19.10;99456.00;;;;340047;28;92280;-92
2021/06/23 00:09:57;;;;;;;1.58;0.25;;;19.40;97.40;19.10;99455.00;;;;338397;28;92032;-96
2021/06/23 00:10:10;;;;;;;1.45;0.22;;;19.40;97.40;19.10;99458.00;;;;340258;28;94715;-96
2021/06/23 00:10:22;;;;;;;4.75;0.73;;;19.30;97.70;19.20;99449.00;;;;338806;28;91098;-96
2021/06/23 00:10:34;;;;;;;4.70;0.80;;;19.40;97.50;19.30;99452.00;;;;338714;28;96411;-96
2021/06/23 00:10:49;;;;;;;3.85;0.47;;;19.30;97.60;19.40;99449.00;;;;340004;28;91905;-96
2021/06/23 00:11:01;;;;;;;1.75;0.20;;;19.30;97.70;19.40;99453.00;;;;338828;28;94454;-96
2021/06/23 00:11:13;;;;;;;1.65;0.30;;;19.40;97.70;19.50;99452.00;;;;341027;28;91532;-95
2021/06/23 00:11:25;;;;;;;1.50;0.20;;;19.40;97.80;19.50;99448.00;;;;340267;28;93747;-94
2021/06/23 00:11:49;;;;;;;0.70;0.20;;;19.40;97.80;19.60;99446.00;;;;340030;28;91889;-96
2021/06/23 00:12:01;;;;;;;0.63;0.40;;;19.40;98.00;19.30;99447.00;;;;337633;28;96904;-95
2021/06/23 00:12:16;;;;;;;0.65;0.40;;;19.50;97.50;19.20;99446.00;;;;342737;28;91930;-95
2021/06/23 00:12:29;;;;;;;1.40;0.20;;;19.40;97.40;19.30;99445.00;;;;341479;28;93186;-95
2021/06/23 00:12:42;;;;;;;1.65;0.20;;;19.40;97.50;19.20;99451.00;;;;341168;28;91965;-92
2021/06/23 00:12:54;;;;;;;1.13;0.20;;;19.40;97.50;19.20;99443.00;;;;341340;28;92770;-95
2021/06/23 00:13:08;;;;;;;2.17;0.30;;;19.40;97.50;19.20;99456.00;;;;340140;28;91982;-95
2021/06/23 00:13:20;;;;;;;2.33;0.28;;;19.40;97.60;19.40;99452.00;;;;341117;28;95837;-94
2021/06/23 00:13:35;;;;;;;2.28;0.20;;;19.40;97.70;19.40;99453.00;;;;341466;28;90352;-96
2021/06/23 00:13:47;;;;;;;0.60;0.20;;;19.40;97.80;19.30;99452.00;;;;336060;28;93781;-96
2021/06/23 00:13:58;;;;;;;0.55;0.15;;;19.40;97.90;19.20;99446.00;;;;339172;28;91087;-95
2021/06/23 00:14:11;;;;;;;1.17;0.20;;;19.40;97.60;19.40;99446.00;;;;342620;28;97730;-96
2021/06/23 00:14:23;;;;;;;1.63;0.20;;;19.40;97.60;19.30;99449.00;;;;341323;28;91908;-94
2021/06/23 00:14:35;;;;;;;1.70;0.22;;;19.40;97.70;19.50;99451.00;;;;341403;28;96428;-96
2021/06/23 00:14:47;;;;;;;1.30;0.20;;;19.40;97.80;19.40;99442.00;;;;341422;28;91913;-96
2021/06/23 00:14:59;;;;;;;1.48;0.20;;;19.40;97.80;19.40;99454.00;;;;340095;28;95916;-96
2021/06/23 00:15:24;;;;;;;0.93;0.30;;;19.40;97.80;19.40;99454.00;;;;337291;28;92005;-94
2021/06/23 00:15:37;;;;;;;1.10;0.40;;;19.40;97.60;19.40;99453.00;;;;340201;28;96381;-95
2021/06/23 00:15:49;;;;;;;0.82;0.35;;;19.40;97.70;19.40;99458.00;;;;340024;28;90336;-94
2021/06/23 00:16:01;;;;;;;1.00;0.20;;;19.40;97.60;19.30;99455.00;;;;337208;28;95008;-96
2021/06/23 00:16:13;;;;;;;1.15;0.20;;;19.40;97.60;19.40;99458.00;;;;341161;28;91228;-96
2021/06/23 00:16:25;;;;;;;1.10;0.10;;;19.40;97.60;19.50;99450.00;;;;338829;28;94643;-92
2021/06/23 00:16:37;;;;;;;0.73;0.20;;;19.40;97.60;19.50;99456.00;;;;341408;28;91179;-96
2021/06/23 00:16:49;;;;;;;1.23;0.20;;;19.40;97.70;19.50;99454.00;;;;341602;28;94203;-96
2021/06/23 00:17:01;;;;;;;1.65;0.20;;;19.40;97.70;19.30;99450.00;;;;340777;28;92523;-94
2021/06/23 00:17:14;;;;;;;1.83;0.20;;;19.40;97.50;19.30;99452.00;;;;341478;28;93113;-96
2021/06/23 00:17:29;;;;;;;3.80;0.20;;;19.40;97.40;19.30;99453.00;;;;337412;28;91099;-95
2021/06/23 00:17:42;;;;;;;3.28;0.20;;;19.40;97.50;19.20;99454.00;;;;341394;28;96893;-95
2021/06/23 00:17:56;;;;;;;1.40;0.30;;;19.40;97.50;19.10;99456.00;;;;341331;28;91235;-95
2021/06/23 00:18:08;;;;;;;1.45;0.30;;;19.30;97.40;19.10;99459.00;;;;340126;28;94789;-96
2021/06/23 00:18:20;;;;;;;2.13;0.30;;;19.30;97.50;19.00;99460.00;;;;342626;28;92016;-95
2021/06/23 00:18:32;;;;;;;1.70;0.30;;;19.30;97.50;19.10;99461.00;;;;340120;28;94271;-95
2021/06/23 00:18:44;;;;;;;0.80;0.30;;;19.30;97.50;19.20;99456.00;;;;339947;28;91988;-95
2021/06/23 00:18:56;;;;;;;0.70;0.30;;;19.30;97.60;19.30;99454.00;;;;338926;28;94150;-96
2021/06/23 00:19:07;;;;;;;0.40;0.20;;;19.30;97.70;19.20;99458.00;;;;340007;28;92254;-96
2021/06/23 00:19:20;;;;;;;1.65;0.22;;;19.30;97.60;19.20;99459.00;;;;338497;28;95761;-96
2021/06/23 00:19:32;;;;;;;1.80;0.30;;;19.30;97.60;19.20;99456.00;;;;338626;28;91944;-95
2021/06/23 00:19:44;;;;;;;1.55;0.20;;;19.30;97.60;19.30;99455.00;;;;342822;28;93035;-92
2021/06/23 00:19:56;;;;;;;0.70;0.20;;;19.30;97.60;19.30;99456.00;;;;338231;28;91361;-95
2021/06/23 00:20:08;;;;;;;1.85;0.20;;;19.30;97.60;19.40;99452.00;;;;343528;28;93918;-96
2021/06/23 00:20:20;;;;;;;2.13;0.30;;;19.40;97.70;19.50;99455.00;;;;341331;28;91892;-96
2021/06/23 00:20:33;;;;;;;1.10;0.20;;;19.40;97.70;19.60;99451.00;;;;340877;28;93861;-95
2021/06/23 00:20:45;;;;;;;1.20;0.57;;;19.40;97.70;19.60;99451.00;;;;339913;28;91200;-95
2021/06/23 00:20:57;;;;;;;1.25;0.57;;;19.40;97.70;19.60;99456.00;;;;340174;28;95913;-96
2021/06/23 00:21:09;;;;;;;1.42;0.40;;;19.40;97.70;19.50;99455.00;;;;339900;28;92016;-95
2021/06/23 00:21:20;;;;;;;2.63;0.60;;;19.40;97.60;19.30;99452.00;;;;338810;28;96453;-96
2021/06/23 00:21:33;;;;;;;2.35;0.50;;;19.40;97.50;19.30;99455.00;;;;338735;28;91966;-96
2021/06/23 00:21:44;;;;;;;1.90;0.35;;;19.40;97.40;19.20;99454.00;;;;338883;28;94386;-95
2021/06/23 00:21:56;;;;;;;0.75;0.20;;;19.40;97.70;19.10;99452.00;;;;340148;28;90394;-96
2021/06/23 00:22:08;;;;;;;2.20;0.60;;;19.40;97.40;19.20;99455.00;;;;342727;28;96656;-95
2021/06/23 00:22:20;;;;;;;2.25;0.60;;;19.40;97.50;19.20;99448.00;;;;338687;28;91102;-95
2021/06/23 00:22:32;;;;;;;0.60;0.20;;;19.40;97.50;19.10;99445.00;;;;342647;28;94532;-94
2021/06/23 00:22:44;;;;;;;0.63;0.25;;;19.40;97.50;19.30;99452.00;;;;340045;28;91921;-95
2021/06/23 00:22:55;;;;;;;0.95;0.30;;;19.40;97.50;19.30;99439.00;;;;340944;28;92488;-94
2021/06/23 00:23:07;;;;;;;1.52;0.30;;;19.40;97.60;19.30;99444.00;;;;336829;28;92271;-96
2021/06/23 00:23:19;;;;;;;1.90;0.20;;;19.40;97.50;19.40;99445.00;;;;337357;28;96581;-96
2021/06/23 00:23:31;;;;;;;2.08;0.30;;;19.40;97.60;19.30;99448.00;;;;339484;28;91127;-94
2021/06/23 00:23:43;;;;;;;1.77;0.30;;;19.40;97.60;19.30;99453.00;;;;338787;28;94574;-96
2021/06/23 00:23:55;;;;;;;0.90;0.20;;;19.40;97.60;19.40;99452.00;;;;342618;28;91285;-96
2021/06/23 00:24:07;;;;;;;0.90;0.20;;;19.40;97.50;19.50;99444.00;;;;341320;28;93066;-95
2021/06/23 00:24:19;;;;;;;0.60;0.20;;;19.40;97.70;19.50;99446.00;;;;342666;28;91930;-95
2021/06/23 00:24:30;;;;;;;1.95;0.30;;;19.40;97.70;19.50;99445.00;;;;340083;28;94048;-92
2021/06/23 00:24:43;;;;;;;2.00;0.32;;;19.40;97.70;19.60;99444.00;;;;340092;28;91985;-95
2021/06/23 00:24:54;;;;;;;1.55;0.28;;;19.50;97.70;19.60;99442.00;;;;341484;28;93450;-95
2021/06/23 00:25:07;;;;;;;0.90;0.40;;;19.50;97.70;19.50;99448.00;;;;341246;28;91396;-95
2021/06/23 00:25:19;;;;;;;1.02;0.50;;;19.50;97.60;19.50;99445.00;;;;338696;28;94059;-95
2021/06/23 00:25:31;;;;;;;1.83;0.45;;;19.50;97.50;19.50;99445.00;;;;341383;28;91956;-95
2021/06/23 00:25:43;;;;;;;2.20;0.20;;;19.50;97.50;19.50;99451.00;;;;340131;28;96101;-96
2021/06/23 00:25:56;;;;;;;1.42;0.20;;;19.50;97.50;19.30;99445.00;;;;342119;28;91463;-95
2021/06/23 00:26:08;;;;;;;0.40;0.17;;;19.50;97.40;19.30;99444.00;;;;339307;28;92287;-95
2021/06/23 00:26:19;;;;;;;0.60;0.20;;;19.50;97.30;19.30;99445.00;;;;340179;28;92298;-96
2021/06/23 00:26:33;;;;;;;2.45;0.28;;;19.50;97.30;19.30;99444.00;;;;341444;28;93315;-96
2021/06/23 00:26:45;;;;;;;4.00;0.60;;;19.50;97.30;19.30;99449.00;;;;341362;28;92044;-95
2021/06/23 00:26:57;;;;;;;3.33;0.50;;;19.40;97.30;19.30;99448.00;;;;340138;28;95922;-96
2021/06/23 00:27:09;;;;;;;1.30;0.20;;;19.40;97.30;19.30;99449.00;;;;341208;28;91149;-95
2021/06/23 00:27:20;;;;;;;1.48;0.20;;;19.40;97.30;19.30;99450.00;;;;341678;28;94514;-94
2021/06/23 00:27:32;;;;;;;2.40;0.20;;;19.50;97.40;19.30;99450.00;;;;341218;28;91999;-94
2021/06/23 00:27:44;;;;;;;1.90;0.20;;;19.40;97.40;19.30;99445.00;;;;337562;28;94023;-95
2021/06/23 00:27:56;;;;;;;1.90;0.20;;;19.50;97.40;19.50;99449.00;;;;341046;28;90482;-95
2021/06/23 00:28:08;;;;;;;1.20;0.20;;;19.50;97.50;19.60;99445.00;;;;338828;28;92557;-95
2021/06/23 00:28:20;;;;;;;1.08;0.20;;;19.50;97.60;19.60;99448.00;;;;339979;28;91139;-96
2021/06/23 00:28:31;;;;;;;1.23;0.30;;;19.50;97.60;19.50;99450.00;;;;338683;28;95305;-94
2021/06/23 00:28:43;;;;;;;0.82;0.30;;;19.50;97.50;19.60;99445.00;;;;339763;28;91962;-96
2021/06/23 00:28:55;;;;;;;0.88;0.30;;;19.50;97.50;19.60;99454.00;;;;337032;28;93101;-93
2021/06/23 00:29:07;;;;;;;0.82;0.20;;;19.50;97.50;19.60;99441.00;;;;341110;28;92015;-96
2021/06/23 00:29:19;;;;;;;1.20;0.20;;;19.60;97.40;19.50;99450.00;;;;341365;28;93043;-95
2021/06/23 00:29:31;;;;;;;1.67;0.20;;;19.60;97.40;19.50;99450.00;;;;340523;28;92088;-95
2021/06/23 00:29:42;;;;;;;1.52;0.20;;;19.60;97.30;19.30;99453.00;;;;344140;28;96144;-96
2021/06/23 00:29:54;;;;;;;2.03;0.20;;;19.60;97.20;19.30;99452.00;;;;342648;28;91460;-95
2021/06/23 00:30:07;;;;;;;1.50;0.30;;;19.60;97.20;19.30;99456.00;;;;341425;28;93323;-96
2021/06/23 00:30:19;;;;;;;1.05;0.20;;;19.50;97.20;19.30;99444.00;;;;342757;28;91943;-96
2021/06/23 00:30:31;;;;;;;0.70;0.20;;;19.50;97.20;19.30;99454.00;;;;339983;28;95741;-96
2021/06/23 00:30:43;;;;;;;1.60;0.28;;;19.50;97.30;19.30;99458.00;;;;338740;28;91029;-96
2021/06/23 00:30:55;;;;;;;2.80;0.30;;;19.50;97.20;19.30;99454.00;;;;342818;28;96212;-96
2021/06/23 00:31:07;;;;;;;3.70;0.20;;;19.50;97.20;19.20;99453.00;;;;339985;28;91939;-95
2021/06/23 00:31:19;;;;;;;2.50;0.30;;;19.50;97.20;19.30;99452.00;;;;342761;28;97386;-96
2021/06/23 00:31:31;;;;;;;2.22;0.30;;;19.50;97.20;19.40;99453.00;;;;342739;28;91821;-96
2021/06/23 00:31:43;;;;;;;1.00;0.20;;;19.50;97.20;19.40;99454.00;;;;339770;28;96218;-94
2021/06/23 00:31:56;;;;;;;2.05;0.35;;;19.50;97.30;19.40;99456.00;;;;341016;28;90373;-95
2021/06/23 00:32:11;;;;;;;3.10;0.40;;;19.50;97.30;19.40;99451.00;;;;337431;28;97116;-96
2021/06/23 00:32:23;;;;;;;2.53;0.30;;;19.50;97.40;19.40;99450.00;;;;342669;28;91938;-96
2021/06/23 00:32:35;;;;;;;1.00;0.38;;;19.50;97.30;19.50;99457.00;;;;339840;28;95899;-96
2021/06/23 00:32:47;;;;;;;1.77;0.38;;;19.60;97.40;19.50;99464.00;;;;342647;28;91988;-96
2021/06/23 00:33:06;;;;;;;1.58;0.25;;;19.60;97.40;19.60;99461.00;;;;340050;28;95879;-95
2021/06/23 00:33:22;;;;;;;0.40;0.10;;;19.60;97.40;19.60;99470.00;;;;341256;28;91183;-95
2021/06/23 00:33:34;;;;;;;1.30;0.30;;;19.60;97.50;19.60;99456.00;;;;337547;28;94307;-95
2021/06/23 00:33:48;;;;;;;1.40;0.30;;;19.60;97.50;19.60;99458.00;;;;338484;28;92075;-95
2021/06/23 00:34:02;;;;;;;1.05;0.25;;;19.60;97.40;19.50;99463.00;;;;337563;28;93963;-95
2021/06/23 00:34:14;;;;;;;0.70;0.20;;;19.60;97.30;19.70;99458.00;;;;339974;28;91207;-95
2021/06/23 00:34:26;;;;;;;0.77;0.20;;;19.70;97.40;19.80;99462.00;;;;337402;28;94111;-94
2021/06/23 00:34:38;;;;;;;0.80;0.20;;;19.70;97.40;19.40;99462.00;;;;339851;28;91179;-96
2021/06/23 00:34:50;;;;;;;1.30;0.30;;;19.70;97.20;19.20;99454.00;;;;338818;28;92690;-96
2021/06/23 00:35:03;;;;;;;5.55;0.70;;;19.60;97.10;19.20;99465.00;;;;343924;28;91502;-94
2021/06/23 00:35:15;;;;;;;5.32;0.57;;;19.60;97.10;19.30;99455.00;;;;342505;28;95133;-94
2021/06/23 00:35:27;;;;;;;5.78;0.50;;;19.60;97.10;19.40;99465.00;;;;338399;28;91946;-93
2021/06/23 00:35:39;;;;;;;2.38;0.20;;;19.60;97.20;19.30;99465.00;;;;336202;28;93597;-95
2021/06/23 00:35:50;;;;;;;2.17;0.30;;;19.60;97.20;19.30;99464.00;;;;339769;28;92181;-96
2021/06/23 00:36:03;;;;;;;3.33;0.30;;;19.60;97.20;19.10;99462.00;;;;336715;28;94269;-96
2021/06/23 00:36:14;;;;;;;2.88;0.30;;;19.60;97.10;19.00;99470.00;;;;341390;28;91208;-95
2021/06/23 00:36:26;;;;;;;2.92;0.30;;;19.50;97.10;18.90;99462.00;;;;341622;28;92295;-95
2021/06/23 00:36:38;;;;;;;3.45;0.40;;;19.50;97.10;19.00;99464.00;;;;337195;28;92042;-95
2021/06/23 00:36:50;;;;;;;5.18;0.40;;;19.40;97.10;19.00;99465.00;;;;341419;28;92016;-95
2021/06/23 00:37:02;;;;;;;3.53;0.43;;;19.40;97.20;19.10;99468.00;;;;337284;28;91109;-95
2021/06/23 00:37:14;;;;;;;3.05;0.40;;;19.40;97.20;19.10;99465.00;;;;341228;28;97445;-94
2021/06/23 00:37:26;;;;;;;1.65;0.40;;;19.40;97.20;19.20;99461.00;;;;338533;28;91869;-94
2021/06/23 00:37:38;;;;;;;0.95;0.20;;;19.40;97.30;19.10;99466.00;;;;340194;28;93429;-95
2021/06/23 00:37:50;;;;;;;1.23;0.22;;;19.40;97.30;19.00;99467.00;;;;341232;28;92272;-95
2021/06/23 00:38:02;;;;;;;1.52;0.38;;;19.40;97.50;18.90;99467.00;;;;339141;28;94161;-94
2021/06/23 00:38:14;;;;;;;1.40;0.30;;;19.40;97.30;18.90;99465.00;;;;340443;28;91239;-92
2021/06/23 00:38:26;;;;;;;0.90;0.30;;;19.30;97.40;18.90;99461.00;;;;336388;28;95796;-93
2021/06/23 00:38:38;;;;;;;1.45;0.20;;;19.30;97.40;18.90;99463.00;;;;340062;28;91951;-95
2021/06/23 00:38:50;;;;;;;1.70;0.20;;;19.30;97.40;18.90;99466.00;;;;337533;28;94947;-95
2021/06/23 00:39:02;;;;;;;1.27;0.22;;;19.30;97.40;19.00;99461.00;;;;342525;28;91885;-95
2021/06/23 00:39:13;;;;;;;1.70;0.25;;;19.30;97.50;18.90;99466.00;;;;339932;28;93085;-95
2021/06/23 00:39:25;;;;;;;1.73;0.30;;;19.20;97.50;18.70;99463.00;;;;342537;28;91097;-94
2021/06/23 00:39:37;;;;;;;0.98;0.35;;;19.20;97.60;18.70;99457.00;;;;341465;28;97152;-95
2021/06/23 00:39:49;;;;;;;1.70;0.40;;;19.10;97.70;18.70;99465.00;;;;338585;28;91957;-95
2021/06/23 00:40:01;;;;;;;2.08;0.40;;;19.10;97.80;18.60;99462.00;;;;338926;28;95927;-95
2021/06/23 00:40:14;;;;;;;2.35;0.30;;;19.00;97.80;18.60;99468.00;;;;341463;28;91162;-95
2021/06/23 00:40:25;;;;;;;2.50;0.30;;;19.00;97.90;18.60;99463.00;;;;342886;28;91983;-93
2021/06/23 00:40:38;;;;;;;1.02;0.20;;;19.00;98.00;18.80;99464.00;;;;338793;28;91579;-96
2021/06/23 00:40:50;;;;;;;0.85;0.13;;;19.00;98.00;18.80;99459.00;;;;342858;28;94554;-95
2021/06/23 00:41:02;;;;;;;1.23;0.20;;;19.00;98.00;18.80;99456.00;;;;338755;28;92219;-95
2021/06/23 00:41:18;;;;;;;1.13;0.20;;;19.00;98.10;18.90;99456.00;;;;341753;28;95243;-95
2021/06/23 00:41:29;;;;;;;1.13;0.25;;;19.00;98.10;18.80;99461.00;;;;341278;28;92131;-94
2021/06/23 00:41:41;;;;;;;1.30;0.20;;;19.00;98.10;18.70;99468.00;;;;341611;28;93094;-95
2021/06/23 00:41:53;;;;;;;1.20;0.20;;;19.00;98.40;18.70;99462.00;;;;341285;28;91982;-94
2021/06/23 00:42:07;;;;;;;1.50;0.40;;;18.90;98.00;18.80;99460.00;;;;340892;28;93801;-94
2021/06/23 00:42:19;;;;;;;2.28;0.50;;;18.90;98.10;18.90;99456.00;;;;339689;28;91197;-89
2021/06/23 00:42:31;;;;;;;1.70;0.30;;;18.90;98.10;18.80;99457.00;;;;337310;28;93458;-93
2021/06/23 00:42:43;;;;;;;1.40;0.20;;;18.90;98.20;18.80;99456.00;;;;340075;28;91913;-95
2021/06/23 00:42:55;;;;;;;2.50;0.20;;;18.90;98.20;18.90;99460.00;;;;337230;28;95982;-94
2021/06/23 00:43:06;;;;;;;1.92;0.30;;;18.90;98.20;18.90;99452.00;;;;341258;28;91248;-93
2021/06/23 00:43:18;;;;;;;0.80;0.30;;;18.90;98.30;18.70;99458.00;;;;341412;28;96115;-94
2021/06/23 00:43:30;;;;;;;0.68;0.20;;;18.90;98.20;18.90;99452.00;;;;340022;28;91567;-95
2021/06/23 00:43:42;;;;;;;1.35;0.20;;;18.90;98.20;18.80;99455.00;;;;338984;28;94124;-95
2021/06/23 00:43:54;;;;;;;2.00;0.40;;;18.90;98.20;18.70;99464.00;;;;339542;28;92389;-91
2021/06/23 00:44:06;;;;;;;2.22;0.40;;;18.90;98.30;18.70;99456.00;;;;339533;28;94926;-95
2021/06/23 00:44:18;;;;;;;2.30;0.20;;;18.90;98.20;18.70;99455.00;;;;342579;28;90414;-95
2021/06/23 00:44:30;;;;;;;1.95;0.20;;;18.90;98.20;18.70;99465.00;;;;338561;28;96119;-95
2021/06/23 00:44:42;;;;;;;3.70;0.20;;;18.90;98.20;18.90;99455.00;;;;339942;28;92043;-95
2021/06/23 00:44:54;;;;;;;2.60;0.30;;;18.90;98.20;18.80;99455.00;;;;340173;28;92192;-95
2021/06/23 00:45:07;;;;;;;2.70;0.40;;;18.90;98.40;18.70;99455.00;;;;342266;28;91987;-96
2021/06/23 00:45:19;;;;;;;2.10;0.47;;;18.90;98.40;18.70;99462.00;;;;340042;28;97086;-94
2021/06/23 00:45:32;;;;;;;1.90;0.40;;;18.90;98.30;18.80;99460.00;;;;339978;28;91122;-96
2021/06/23 00:45:44;;;;;;;0.60;0.20;;;18.90;98.20;18.90;99460.00;;;;341243;28;95647;-94
2021/06/23 00:45:56;;;;;;;0.70;0.20;;;18.90;98.20;18.80;99454.00;;;;342421;28;91973;-95
2021/06/23 00:46:08;;;;;;;1.50;0.20;;;18.90;98.20;18.80;99449.00;;;;342689;28;95561;-95
2021/06/23 00:46:41;;;;;;;2.70;0.22;;;18.90;98.20;18.90;99459.00;;;;338710;28;91297;-95
2021/06/23 00:46:53;;;;;;;2.30;0.20;;;18.90;98.20;18.80;99456.00;;;;341295;28;96605;-94
2021/06/23 00:47:05;;;;;;;0.98;0.20;;;18.90;98.30;18.90;99455.00;;;;337759;28;91350;-94
2021/06/23 00:47:16;;;;;;;0.90;0.20;;;18.90;98.20;19.00;99460.00;;;;339970;28;94286;-95
2021/06/23 00:47:28;;;;;;;1.10;0.20;;;18.90;98.20;18.90;99455.00;;;;338887;28;92352;-95
2021/06/23 00:47:43;;;;;;;1.10;0.20;;;18.90;98.20;18.90;99457.00;;;;340113;28;94391;-94
2021/06/23 00:47:56;;;;;;;0.75;0.20;;;18.90;98.30;18.90;99462.00;;;;339789;28;92011;-94
2021/06/23 00:48:09;;;;;;;1.25;0.20;;;18.90;98.20;18.90;99458.00;;;;341468;28;92903;-94
2021/06/23 00:48:29;;;;;;;1.73;0.22;;;18.90;98.20;19.00;99451.00;;;;341275;28;92008;-96
2021/06/23 00:48:41;;;;;;;2.25;0.30;;;18.90;98.30;18.90;99460.00;;;;340053;28;95179;-94
2021/06/23 00:48:56;;;;;;;1.27;0.20;;;18.90;98.30;18.90;99454.00;;;;339985;28;91208;-96
2021/06/23 00:49:08;;;;;;;0.95;0.20;;;18.90;98.20;18.90;99451.00;;;;342719;28;93795;-94
2021/06/23 00:49:20;;;;;;;0.90;0.20;;;18.90;98.20;19.00;99463.00;;;;343816;28;91139;-93
2021/06/23 00:49:33;;;;;;;0.65;0.20;;;18.90;98.30;18.80;99461.00;;;;339860;28;94913;-94
2021/06/23 00:49:45;;;;;;;1.30;0.20;;;18.90;98.20;18.80;99457.00;;;;340001;28;92027;-94
2021/06/23 00:49:58;;;;;;;2.15;0.40;;;18.90;98.00;18.70;99454.00;;;;341194;28;94226;-95
2021/06/23 00:50:11;;;;;;;1.50;0.35;;;18.90;98.00;18.60;99464.00;;;;337979;28;91269;-95
2021/06/23 00:50:23;;;;;;;1.33;0.30;;;18.90;98.00;18.60;99459.00;;;;340192;28;94521;-95
2021/06/23 00:50:35;;;;;;;1.17;0.30;;;18.80;97.90;18.60;99466.00;;;;338392;28;92126;-95
2021/06/23 00:50:47;;;;;;;0.73;0.25;;;18.80;98.00;18.60;99459.00;;;;341547;28;93353;-95
2021/06/23 00:51:00;;;;;;;0.82;0.30;;;18.80;98.10;18.60;99462.00;;;;340135;28;91184;-91
2021/06/23 00:51:13;;;;;;;1.77;0.20;;;18.80;98.10;18.70;99458.00;;;;341342;28;93448;-94
2021/06/23 00:51:25;;;;;;;1.52;0.20;;;18.80;98.20;18.70;99463.00;;;;339968;28;92047;-96
2021/06/23 00:51:37;;;;;;;2.95;0.45;;;18.80;98.20;18.70;99460.00;;;;341366;28;96450;-94
2021/06/23 00:51:48;;;;;;;2.17;0.50;;;18.80;98.30;18.70;99461.00;;;;342665;28;91129;-93
2021/06/23 00:52:00;;;;;;;1.90;0.38;;;18.80;98.30;18.60;99465.00;;;;341216;28;96306;-92
2021/06/23 00:52:12;;;;;;;0.73;0.20;;;18.80;98.20;18.60;99458.00;;;;341145;28;92414;-94
2021/06/23 00:52:24;;;;;;;0.52;0.10;;;18.70;98.20;18.70;99455.00;;;;341591;28;92998;-94
2021/06/23 00:52:36;;;;;;;0.65;0.15;;;18.80;98.30;18.70;99451.00;;;;339859;28;92262;-95
2021/06/23 00:52:48;;;;;;;1.10;0.30;;;18.80;98.20;18.80;99451.00;;;;341674;28;93355;-96
2021/06/23 00:53:00;;;;;;;1.38;0.30;;;18.80;98.50;18.80;99455.00;;;;339964;28;95946;-95
2021/06/23 00:53:13;;;;;;;1.55;0.22;;;18.80;98.30;18.70;99463.00;;;;343253;28;92266;-92
2021/06/23 00:53:25;;;;;;;2.90;0.30;;;18.80;98.30;18.60;99459.00;;;;341325;28;91996;-94
2021/06/23 00:53:36;;;;;;;2.75;0.30;;;18.80;98.30;18.60;99456.00;;;;340032;28;95072;-88
2021/06/23 00:53:48;;;;;;;2.20;0.30;;;18.80;98.20;18.60;99457.00;;;;343154;28;90870;-88
2021/06/23 00:54:00;;;;;;;2.40;0.22;;;18.80;98.20;18.60;99462.00;;;;341858;28;93542;-87
2021/06/23 00:54:14;;;;;;;2.15;0.30;;;18.70;98.20;18.60;99456.00;;;;343175;28;91111;-90
2021/06/23 00:54:26;;;;;;;3.22;0.20;;;18.80;98.30;18.50;99458.00;;;;343261;28;96277;-87
2021/06/23 00:54:39;;;;;;;2.13;0.20;;;18.80;98.30;18.70;99456.00;;;;341641;28;90885;-87
2021/06/23 00:54:52;;;;;;;0.90;0.40;;;18.80;98.30;18.80;99457.00;;;;340635;28;94479;-86
2021/06/23 00:55:04;;;;;;;0.80;0.50;;;18.80;98.40;18.80;99459.00;;;;342254;28;90335;-85
2021/06/23 00:55:22;;;;;;;1.13;0.35;;;18.80;98.30;18.70;99461.00;;;;341973;28;94845;-86
2021/06/23 00:55:34;;;;;;;1.92;0.20;;;18.80;98.20;18.60;99458.00;;;;341931;28;91145;-88
2021/06/23 00:55:46;;;;;;;1.58;0.20;;;18.80;98.20;18.50;99454.00;;;;340669;28;94409;-86
2021/06/23 00:55:59;;;;;;;1.35;0.30;;;18.70;98.20;18.60;99455.00;;;;340219;28;90946;-86